UTA4201 UHHH-UHSS
Flight info
| Callsign | UTA4201 |
|---|---|
| Flight time | 1h 8m |
| Altitude | 31000 |
| Route | NEBE4V NEBES KELUL KELU4V |
| Aircraft | B38M/M-SBDFGM3RWXY/LB1 |
Departure
| Time | 2026-05-05 17:14 |
|---|---|
| Airport | Khabarovsk Novy Airport (UHHH) |
Arrival
| Time | 2026-05-05 18:22 |
|---|---|
| Airport | Yuzhno-Sakhalinsk International Airport (UHSS) |
| Time | Latitude | Longitude | Altitude | Speed | Heading |
|---|---|---|---|---|---|
| 2026-05-05 16:44 | 48.52529 | 135.17213 | 253 ft | 0 kts | 313° |
| 2026-05-05 17:02 | 48.52523 | 135.17224 | 253 ft | 2 kts | 313° |
| 2026-05-05 17:02 | 48.52512 | 135.17241 | 253 ft | 2 kts | 313° |
| 2026-05-05 17:03 | 48.52502 | 135.17258 | 253 ft | 2 kts | 313° |
| 2026-05-05 17:03 | 48.52492 | 135.17274 | 253 ft | 2 kts | 315° |
| 2026-05-05 17:03 | 48.52479 | 135.17285 | 253 ft | 2 kts | 344° |
| 2026-05-05 17:03 | 48.52464 | 135.17288 | 253 ft | 2 kts | 7° |
| 2026-05-05 17:04 | 48.52450 | 135.17282 | 253 ft | 2 kts | 30° |
| 2026-05-05 17:04 | 48.52443 | 135.17274 | 253 ft | 1 kts | 43° |
| 2026-05-05 17:04 | 48.52439 | 135.17268 | 253 ft | 0 kts | 43° |
| 2026-05-05 17:08 | 48.52451 | 135.17285 | 253 ft | 5 kts | 42° |
| 2026-05-05 17:08 | 48.52499 | 135.17351 | 253 ft | 12 kts | 42° |
| 2026-05-05 17:08 | 48.52583 | 135.17465 | 253 ft | 19 kts | 41° |
| 2026-05-05 17:08 | 48.52683 | 135.17577 | 253 ft | 15 kts | 0° |
| 2026-05-05 17:09 | 48.52762 | 135.17519 | 253 ft | 10 kts | 17° |
| 2026-05-05 17:09 | 48.52814 | 135.17586 | 253 ft | 10 kts | 42° |
| 2026-05-05 17:09 | 48.52885 | 135.17683 | 253 ft | 16 kts | 41° |
| 2026-05-05 17:09 | 48.52929 | 135.17802 | 253 ft | 3 kts | 109° |
| 2026-05-05 17:10 | 48.52900 | 135.17860 | 253 ft | 12 kts | 132° |
| 2026-05-05 17:10 | 48.52819 | 135.17993 | 253 ft | 18 kts | 132° |
| 2026-05-05 17:10 | 48.52800 | 135.18126 | 253 ft | 13 kts | 45° |
| 2026-05-05 17:10 | 48.52869 | 135.18221 | 253 ft | 13 kts | 42° |
| 2026-05-05 17:11 | 48.52945 | 135.18324 | 253 ft | 16 kts | 42° |
| 2026-05-05 17:11 | 48.53034 | 135.18448 | 253 ft | 17 kts | 43° |
| 2026-05-05 17:11 | 48.53034 | 135.18584 | 253 ft | 10 kts | 130° |
| 2026-05-05 17:11 | 48.53027 | 135.18596 | 253 ft | 0 kts | 131° |
| 2026-05-05 17:12 | 48.53024 | 135.18600 | 253 ft | 2 kts | 131° |
| 2026-05-05 17:12 | 48.53001 | 135.18639 | 253 ft | 7 kts | 131° |
| 2026-05-05 17:12 | 48.52952 | 135.18704 | 253 ft | 11 kts | 161° |
| 2026-05-05 17:12 | 48.52884 | 135.18672 | 253 ft | 4 kts | 221° |
| 2026-05-05 17:13 | 48.52882 | 135.18671 | 253 ft | 0 kts | 221° |
| 2026-05-05 17:13 | 48.52832 | 135.18604 | 253 ft | 38 kts | 222° |
| 2026-05-05 17:13 | 48.52395 | 135.18005 | 254 ft | 130 kts | 222° |
| 2026-05-05 17:13 | 48.51555 | 135.16846 | 559 ft | 181 kts | 223° |
| 2026-05-05 17:14 | 48.50729 | 135.15733 | 1993 ft | 160 kts | 223° |
| 2026-05-05 17:14 | 48.49913 | 135.14638 | 2903 ft | 167 kts | 223° |
| 2026-05-05 17:14 | 48.49041 | 135.13426 | 3678 ft | 182 kts | 224° |
| 2026-05-05 17:14 | 48.48049 | 135.11972 | 4128 ft | 211 kts | 224° |
| 2026-05-05 17:15 | 48.46902 | 135.10422 | 4473 ft | 232 kts | 221° |
| 2026-05-05 17:15 | 48.45648 | 135.08777 | 4916 ft | 249 kts | 222° |
| 2026-05-05 17:15 | 48.44333 | 135.07018 | 5573 ft | 257 kts | 223° |
| 2026-05-05 17:15 | 48.43017 | 135.05237 | 6296 ft | 261 kts | 223° |
| 2026-05-05 17:16 | 48.41668 | 135.03409 | 7032 ft | 264 kts | 223° |
| 2026-05-05 17:16 | 48.40295 | 135.01552 | 7763 ft | 267 kts | 223° |
| 2026-05-05 17:16 | 48.38906 | 134.99670 | 8480 ft | 270 kts | 223° |
| 2026-05-05 17:16 | 48.37498 | 134.97795 | 9039 ft | 278 kts | 219° |
| 2026-05-05 17:17 | 48.35710 | 134.96664 | 9084 ft | 278 kts | 184° |
| 2026-05-05 17:17 | 48.33908 | 134.97301 | 9813 ft | 274 kts | 150° |
| 2026-05-05 17:17 | 48.32610 | 134.99355 | 10570 ft | 278 kts | 117° |
| 2026-05-05 17:17 | 48.32043 | 135.02103 | 11347 ft | 276 kts | 102° |
| 2026-05-05 17:18 | 48.31728 | 135.04910 | 12095 ft | 273 kts | 100° |
| 2026-05-05 17:18 | 48.31450 | 135.07704 | 12828 ft | 270 kts | 99° |
| 2026-05-05 17:18 | 48.31177 | 135.10484 | 13457 ft | 271 kts | 100° |
| 2026-05-05 17:18 | 48.30903 | 135.13263 | 14082 ft | 270 kts | 100° |
| 2026-05-05 17:19 | 48.30626 | 135.16067 | 14722 ft | 276 kts | 100° |
| 2026-05-05 17:19 | 48.30341 | 135.18938 | 15358 ft | 288 kts | 100° |
| 2026-05-05 17:19 | 48.30043 | 135.21933 | 15972 ft | 288 kts | 100° |
| 2026-05-05 17:19 | 48.29752 | 135.24866 | 16587 ft | 286 kts | 100° |
| 2026-05-05 17:20 | 48.29460 | 135.27788 | 17208 ft | 282 kts | 100° |
| 2026-05-05 17:20 | 48.29173 | 135.30666 | 17828 ft | 278 kts | 100° |
| 2026-05-05 17:20 | 48.28891 | 135.33484 | 18447 ft | 273 kts | 100° |
| 2026-05-05 17:20 | 48.28612 | 135.36261 | 19070 ft | 266 kts | 100° |
| 2026-05-05 17:21 | 48.28342 | 135.38953 | 19692 ft | 259 kts | 100° |
| 2026-05-05 17:21 | 48.28074 | 135.41602 | 20298 ft | 262 kts | 101° |
| 2026-05-05 17:21 | 48.27794 | 135.44353 | 20810 ft | 270 kts | 101° |
| 2026-05-05 17:22 | 48.27213 | 135.50035 | 21832 ft | 284 kts | 100° |
| 2026-05-05 17:22 | 48.26908 | 135.52997 | 22335 ft | 291 kts | 100° |
| 2026-05-05 17:22 | 48.26599 | 135.56006 | 22834 ft | 298 kts | 100° |
| 2026-05-05 17:22 | 48.26279 | 135.59105 | 23334 ft | 305 kts | 100° |
| 2026-05-05 17:23 | 48.25949 | 135.62289 | 23837 ft | 311 kts | 100° |
| 2026-05-05 17:23 | 48.25615 | 135.65506 | 24334 ft | 317 kts | 101° |
| 2026-05-05 17:23 | 48.25274 | 135.68799 | 24835 ft | 322 kts | 101° |
| 2026-05-05 17:23 | 48.24931 | 135.72107 | 25330 ft | 327 kts | 101° |
| 2026-05-05 17:24 | 48.24577 | 135.75503 | 25831 ft | 331 kts | 101° |
| 2026-05-05 17:24 | 48.24221 | 135.78914 | 26330 ft | 335 kts | 101° |
| 2026-05-05 17:24 | 48.23850 | 135.82452 | 26486 ft | 352 kts | 101° |
| 2026-05-05 17:24 | 48.23461 | 135.86140 | 26540 ft | 371 kts | 101° |
| 2026-05-05 17:25 | 48.23047 | 135.90059 | 26591 ft | 381 kts | 101° |
| 2026-05-05 17:25 | 48.22769 | 135.92677 | 26623 ft | 387 kts | 101° |
| 2026-05-05 17:25 | 48.22198 | 135.98050 | 26687 ft | 400 kts | 101° |
| 2026-05-05 17:25 | 48.21751 | 136.02241 | 26738 ft | 409 kts | 101° |
| 2026-05-05 17:26 | 48.21299 | 136.06464 | 26787 ft | 418 kts | 101° |
| 2026-05-05 17:26 | 48.20829 | 136.10838 | 26837 ft | 426 kts | 101° |
| 2026-05-05 17:26 | 48.20358 | 136.15213 | 26887 ft | 434 kts | 101° |
| 2026-05-05 17:26 | 48.19866 | 136.19754 | 26939 ft | 445 kts | 101° |
| 2026-05-05 17:27 | 48.19359 | 136.24408 | 27056 ft | 460 kts | 101° |
| 2026-05-05 17:27 | 48.18844 | 136.29129 | 27264 ft | 465 kts | 100° |
| 2026-05-05 17:27 | 48.18319 | 136.33917 | 27466 ft | 468 kts | 100° |
| 2026-05-05 17:27 | 48.17794 | 136.38695 | 27718 ft | 469 kts | 100° |
| 2026-05-05 17:28 | 48.17263 | 136.43506 | 27926 ft | 471 kts | 100° |
| 2026-05-05 17:28 | 48.16721 | 136.48396 | 28158 ft | 473 kts | 100° |
| 2026-05-05 17:28 | 48.16180 | 136.53259 | 28374 ft | 475 kts | 100° |
| 2026-05-05 17:28 | 48.15636 | 136.58124 | 28589 ft | 476 kts | 100° |
| 2026-05-05 17:29 | 48.15086 | 136.63020 | 28797 ft | 478 kts | 100° |
| 2026-05-05 17:29 | 48.14536 | 136.67899 | 29013 ft | 480 kts | 101° |
| 2026-05-05 17:29 | 48.13984 | 136.72795 | 29218 ft | 481 kts | 101° |
| 2026-05-05 17:29 | 48.13422 | 136.77771 | 29466 ft | 481 kts | 101° |
| 2026-05-05 17:30 | 48.12862 | 136.82697 | 29729 ft | 481 kts | 101° |
| 2026-05-05 17:30 | 48.12304 | 136.87595 | 29979 ft | 481 kts | 101° |
| 2026-05-05 17:30 | 48.11742 | 136.92493 | 30246 ft | 480 kts | 102° |
| 2026-05-05 17:30 | 48.11173 | 136.97446 | 30507 ft | 480 kts | 102° |
| 2026-05-05 17:31 | 48.10606 | 137.02350 | 30669 ft | 480 kts | 102° |
| 2026-05-05 17:31 | 48.09465 | 137.12160 | 30671 ft | 485 kts | 102° |
| 2026-05-05 17:32 | 48.08297 | 137.22124 | 30669 ft | 490 kts | 102° |
| 2026-05-05 17:32 | 48.07109 | 137.32172 | 30669 ft | 494 kts | 102° |
| 2026-05-05 17:33 | 48.05897 | 137.42329 | 30669 ft | 497 kts | 102° |
| 2026-05-05 17:33 | 48.04679 | 137.52469 | 30670 ft | 502 kts | 102° |
| 2026-05-05 17:34 | 48.03420 | 137.62845 | 30666 ft | 509 kts | 102° |
| 2026-05-05 17:34 | 48.02155 | 137.73228 | 30668 ft | 510 kts | 103° |
| 2026-05-05 17:35 | 48.00877 | 137.83655 | 30668 ft | 511 kts | 103° |
| 2026-05-05 17:35 | 47.99591 | 137.94046 | 30668 ft | 511 kts | 103° |
| 2026-05-05 17:36 | 47.98286 | 138.04515 | 30668 ft | 511 kts | 103° |
| 2026-05-05 17:36 | 47.96988 | 138.14845 | 30669 ft | 511 kts | 103° |
| 2026-05-05 17:37 | 47.95670 | 138.25252 | 30669 ft | 511 kts | 103° |
| 2026-05-05 17:37 | 47.94342 | 138.35645 | 30669 ft | 511 kts | 103° |
| 2026-05-05 17:38 | 47.93001 | 138.46057 | 30669 ft | 511 kts | 103° |
| 2026-05-05 17:38 | 47.91660 | 138.56393 | 30669 ft | 511 kts | 103° |
| 2026-05-05 17:39 | 47.90297 | 138.66815 | 30669 ft | 511 kts | 103° |
| 2026-05-05 17:39 | 47.88937 | 138.77176 | 30669 ft | 511 kts | 103° |
| 2026-05-05 17:40 | 47.87571 | 138.87503 | 30669 ft | 511 kts | 103° |
| 2026-05-05 17:40 | 47.86190 | 138.97855 | 30669 ft | 511 kts | 103° |
| 2026-05-05 17:41 | 47.84831 | 139.07997 | 30665 ft | 486 kts | 104° |
| 2026-05-05 17:41 | 47.83508 | 139.17787 | 30672 ft | 482 kts | 104° |
| 2026-05-05 17:42 | 47.82169 | 139.27605 | 30669 ft | 486 kts | 104° |
| 2026-05-05 17:42 | 47.80824 | 139.37405 | 30696 ft | 486 kts | 104° |
| 2026-05-05 17:43 | 47.79463 | 139.47246 | 30695 ft | 485 kts | 104° |
| 2026-05-05 17:43 | 47.78101 | 139.57027 | 30695 ft | 485 kts | 104° |
| 2026-05-05 17:44 | 47.76723 | 139.66850 | 30695 ft | 485 kts | 105° |
| 2026-05-05 17:44 | 47.75349 | 139.76625 | 30695 ft | 485 kts | 105° |
| 2026-05-05 17:45 | 47.73957 | 139.86458 | 30696 ft | 485 kts | 105° |
| 2026-05-05 17:45 | 47.72565 | 139.96222 | 30696 ft | 485 kts | 105° |
| 2026-05-05 17:46 | 47.71162 | 140.05994 | 30696 ft | 485 kts | 105° |
| 2026-05-05 17:46 | 47.69747 | 140.15781 | 30695 ft | 485 kts | 105° |
| 2026-05-05 17:47 | 47.68327 | 140.25542 | 30696 ft | 485 kts | 105° |
| 2026-05-05 17:47 | 47.66902 | 140.35269 | 30696 ft | 485 kts | 105° |
| 2026-05-05 17:48 | 47.65461 | 140.45041 | 30695 ft | 485 kts | 105° |
| 2026-05-05 17:48 | 47.64021 | 140.54738 | 30695 ft | 485 kts | 105° |
| 2026-05-05 17:49 | 47.62566 | 140.64479 | 30696 ft | 485 kts | 105° |
| 2026-05-05 17:49 | 47.61108 | 140.74196 | 30427 ft | 485 kts | 105° |
| 2026-05-05 17:49 | 47.60378 | 140.79050 | 30176 ft | 482 kts | 105° |
| 2026-05-05 17:50 | 47.59645 | 140.83902 | 29925 ft | 481 kts | 105° |
| 2026-05-05 17:50 | 47.58919 | 140.88696 | 29680 ft | 480 kts | 105° |
| 2026-05-05 17:50 | 47.58182 | 140.93550 | 29428 ft | 479 kts | 105° |
| 2026-05-05 17:50 | 47.57461 | 140.98277 | 29159 ft | 476 kts | 105° |
| 2026-05-05 17:51 | 47.56741 | 141.02995 | 28692 ft | 466 kts | 105° |
| 2026-05-05 17:51 | 47.56027 | 141.07661 | 28190 ft | 461 kts | 105° |
| 2026-05-05 17:51 | 47.55318 | 141.12259 | 27634 ft | 467 kts | 105° |
| 2026-05-05 17:51 | 47.54594 | 141.16954 | 26959 ft | 461 kts | 105° |
| 2026-05-05 17:52 | 47.53892 | 141.21492 | 26307 ft | 455 kts | 105° |
| 2026-05-05 17:52 | 47.53186 | 141.26044 | 25649 ft | 450 kts | 105° |
| 2026-05-05 17:52 | 47.52496 | 141.30478 | 25004 ft | 444 kts | 105° |
| 2026-05-05 17:52 | 47.51804 | 141.34914 | 24356 ft | 439 kts | 105° |
| 2026-05-05 17:53 | 47.51128 | 141.39235 | 23724 ft | 434 kts | 105° |
| 2026-05-05 17:53 | 47.50450 | 141.43556 | 23086 ft | 428 kts | 105° |
| 2026-05-05 17:53 | 47.49780 | 141.47816 | 22454 ft | 423 kts | 105° |
| 2026-05-05 17:53 | 47.49120 | 141.51993 | 21832 ft | 418 kts | 105° |
| 2026-05-05 17:54 | 47.48464 | 141.56140 | 21214 ft | 413 kts | 105° |
| 2026-05-05 17:54 | 47.47812 | 141.60251 | 20595 ft | 409 kts | 104° |
| 2026-05-05 17:54 | 47.47169 | 141.64291 | 19983 ft | 404 kts | 104° |
| 2026-05-05 17:54 | 47.46528 | 141.68320 | 19373 ft | 399 kts | 105° |
| 2026-05-05 17:55 | 47.45900 | 141.72258 | 18770 ft | 394 kts | 105° |
| 2026-05-05 17:55 | 47.45273 | 141.76180 | 18171 ft | 390 kts | 105° |
| 2026-05-05 17:55 | 47.44654 | 141.80043 | 17578 ft | 385 kts | 105° |
| 2026-05-05 17:55 | 47.44045 | 141.83835 | 16997 ft | 381 kts | 105° |
| 2026-05-05 17:56 | 47.43438 | 141.87604 | 16418 ft | 376 kts | 105° |
| 2026-05-05 17:56 | 47.42834 | 141.91342 | 15834 ft | 372 kts | 105° |
| 2026-05-05 17:56 | 47.42239 | 141.95012 | 15268 ft | 368 kts | 105° |
| 2026-05-05 17:56 | 47.41650 | 141.98645 | 14766 ft | 363 kts | 105° |
| 2026-05-05 17:57 | 47.41053 | 142.02306 | 14706 ft | 366 kts | 105° |
| 2026-05-05 17:57 | 47.40457 | 142.05957 | 14691 ft | 370 kts | 105° |
| 2026-05-05 17:57 | 47.39854 | 142.09641 | 14692 ft | 369 kts | 105° |
| 2026-05-05 17:57 | 47.39255 | 142.13298 | 14622 ft | 367 kts | 105° |
| 2026-05-05 17:58 | 47.38647 | 142.16928 | 13948 ft | 366 kts | 106° |
| 2026-05-05 17:58 | 47.37960 | 142.20540 | 12903 ft | 375 kts | 107° |
| 2026-05-05 17:58 | 47.37227 | 142.24237 | 11830 ft | 381 kts | 107° |
| 2026-05-05 17:58 | 47.36494 | 142.27954 | 10773 ft | 370 kts | 107° |
| 2026-05-05 17:59 | 47.35801 | 142.31486 | 10071 ft | 351 kts | 107° |
| 2026-05-05 17:59 | 47.35146 | 142.34827 | 9696 ft | 326 kts | 107° |
| 2026-05-05 17:59 | 47.34549 | 142.37875 | 9613 ft | 298 kts | 107° |
| 2026-05-05 17:59 | 47.33991 | 142.40717 | 9579 ft | 280 kts | 108° |
| 2026-05-05 18:00 | 47.33453 | 142.43445 | 9270 ft | 278 kts | 108° |
| 2026-05-05 18:00 | 47.32914 | 142.46173 | 8894 ft | 277 kts | 108° |
| 2026-05-05 18:00 | 47.32381 | 142.48879 | 8546 ft | 276 kts | 108° |
| 2026-05-05 18:00 | 47.31846 | 142.51593 | 8202 ft | 274 kts | 108° |
| 2026-05-05 18:01 | 47.31318 | 142.54263 | 7861 ft | 272 kts | 108° |
| 2026-05-05 18:01 | 47.30502 | 142.56732 | 7537 ft | 265 kts | 133° |
| 2026-05-05 18:01 | 47.29137 | 142.58460 | 7252 ft | 259 kts | 147° |
| 2026-05-05 18:01 | 47.27646 | 142.59923 | 6917 ft | 257 kts | 147° |
| 2026-05-05 18:02 | 47.26203 | 142.61444 | 6590 ft | 256 kts | 144° |
| 2026-05-05 18:02 | 47.24800 | 142.63057 | 6269 ft | 254 kts | 142° |
| 2026-05-05 18:02 | 47.23439 | 142.64674 | 5951 ft | 253 kts | 142° |
| 2026-05-05 18:02 | 47.22084 | 142.66298 | 5635 ft | 251 kts | 143° |
| 2026-05-05 18:03 | 47.20728 | 142.67921 | 5348 ft | 248 kts | 143° |
| 2026-05-05 18:03 | 47.19392 | 142.69423 | 5163 ft | 240 kts | 149° |
| 2026-05-05 18:03 | 47.17935 | 142.70523 | 4951 ft | 234 kts | 161° |
| 2026-05-05 18:03 | 47.16363 | 142.71176 | 4556 ft | 237 kts | 170° |
| 2026-05-05 18:04 | 47.14724 | 142.71549 | 4040 ft | 244 kts | 172° |
| 2026-05-05 18:04 | 47.13069 | 142.71905 | 3986 ft | 231 kts | 174° |
| 2026-05-05 18:04 | 47.11521 | 142.72096 | 3983 ft | 216 kts | 177° |
| 2026-05-05 18:04 | 47.10059 | 142.72179 | 3966 ft | 209 kts | 179° |
| 2026-05-05 18:05 | 47.08629 | 142.72201 | 3752 ft | 200 kts | 180° |
| 2026-05-05 18:05 | 47.07299 | 142.72192 | 3453 ft | 187 kts | 181° |
| 2026-05-05 18:05 | 47.06053 | 142.72170 | 3235 ft | 170 kts | 181° |
| 2026-05-05 18:05 | 47.04887 | 142.72144 | 2969 ft | 165 kts | 181° |
| 2026-05-05 18:06 | 47.03802 | 142.72118 | 2825 ft | 145 kts | 181° |
| 2026-05-05 18:06 | 47.03162 | 142.72102 | 2644 ft | 139 kts | 180° |
| 2026-05-05 18:06 | 47.01926 | 142.72070 | 2364 ft | 130 kts | 180° |
| 2026-05-05 18:06 | 47.00993 | 142.72047 | 2289 ft | 137 kts | 180° |
| 2026-05-05 18:07 | 47.00053 | 142.72025 | 1986 ft | 132 kts | 180° |
| 2026-05-05 18:07 | 46.99140 | 142.72002 | 1878 ft | 132 kts | 180° |
| 2026-05-05 18:07 | 46.98209 | 142.71979 | 1657 ft | 134 kts | 180° |
| 2026-05-05 18:07 | 46.97298 | 142.71956 | 1465 ft | 132 kts | 180° |
| 2026-05-05 18:08 | 46.96373 | 142.71915 | 1239 ft | 132 kts | 180° |
| 2026-05-05 18:08 | 46.95470 | 142.71887 | 1039 ft | 131 kts | 180° |
| 2026-05-05 18:08 | 46.94568 | 142.71846 | 883 ft | 128 kts | 181° |
| 2026-05-05 18:08 | 46.93672 | 142.71826 | 670 ft | 129 kts | 179° |
| 2026-05-05 18:09 | 46.92790 | 142.71814 | 564 ft | 128 kts | 180° |
| 2026-05-05 18:09 | 46.91885 | 142.71805 | 389 ft | 129 kts | 178° |
| 2026-05-05 18:09 | 46.90990 | 142.71782 | 280 ft | 131 kts | 179° |
| 2026-05-05 18:09 | 46.90394 | 142.71776 | 141 ft | 130 kts | 179° |
| 2026-05-05 18:10 | 46.89524 | 142.71751 | 66 ft | 123 kts | 180° |
| 2026-05-05 18:10 | 46.88582 | 142.71704 | 519 ft | 144 kts | 182° |
| 2026-05-05 18:10 | 46.87545 | 142.71585 | 1251 ft | 157 kts | 182° |
| 2026-05-05 18:10 | 46.86377 | 142.71463 | 1615 ft | 190 kts | 184° |
| 2026-05-05 18:11 | 46.84895 | 142.71265 | 1324 ft | 229 kts | 185° |
| 2026-05-05 18:11 | 46.83344 | 142.71046 | 1254 ft | 222 kts | 185° |
| 2026-05-05 18:11 | 46.81781 | 142.70808 | 1535 ft | 232 kts | 189° |
| 2026-05-05 18:11 | 46.80346 | 142.69849 | 2318 ft | 232 kts | 219° |
| 2026-05-05 18:12 | 46.79452 | 142.67926 | 3007 ft | 236 kts | 250° |
| 2026-05-05 18:12 | 46.79311 | 142.65530 | 3704 ft | 240 kts | 272° |
| 2026-05-05 18:12 | 46.79533 | 142.63103 | 3991 ft | 248 kts | 277° |
| 2026-05-05 18:12 | 46.79824 | 142.60625 | 3981 ft | 242 kts | 278° |
| 2026-05-05 18:13 | 46.80117 | 142.58217 | 3995 ft | 242 kts | 278° |
| 2026-05-05 18:13 | 46.80670 | 142.55894 | 3987 ft | 246 kts | 302° |
| 2026-05-05 18:13 | 46.81924 | 142.54242 | 3996 ft | 250 kts | 332° |
| 2026-05-05 18:13 | 46.83633 | 142.53679 | 3999 ft | 252 kts | 1° |
| 2026-05-05 18:14 | 46.85360 | 142.53824 | 4001 ft | 253 kts | 3° |
| 2026-05-05 18:14 | 46.87113 | 142.53897 | 3989 ft | 252 kts | 0° |
| 2026-05-05 18:14 | 46.88877 | 142.53900 | 3992 ft | 252 kts | 360° |
| 2026-05-05 18:14 | 46.90625 | 142.53894 | 3993 ft | 252 kts | 360° |
| 2026-05-05 18:15 | 46.92385 | 142.53886 | 3992 ft | 251 kts | 360° |
| 2026-05-05 18:15 | 46.94118 | 142.53877 | 3993 ft | 251 kts | 360° |
| 2026-05-05 18:15 | 46.95861 | 142.53868 | 3992 ft | 251 kts | 360° |
| 2026-05-05 18:15 | 46.97600 | 142.53857 | 3993 ft | 251 kts | 360° |
| 2026-05-05 18:16 | 46.99349 | 142.53847 | 3993 ft | 251 kts | 360° |
| 2026-05-05 18:16 | 47.01091 | 142.53834 | 3992 ft | 250 kts | 360° |
| 2026-05-05 18:16 | 47.02819 | 142.53824 | 3982 ft | 241 kts | 1° |
| 2026-05-05 18:16 | 47.04337 | 142.54462 | 3976 ft | 221 kts | 39° |
| 2026-05-05 18:17 | 47.05122 | 142.56215 | 4023 ft | 205 kts | 81° |
| 2026-05-05 18:17 | 47.04991 | 142.58235 | 4008 ft | 198 kts | 110° |
| 2026-05-05 18:17 | 47.04508 | 142.60106 | 3990 ft | 197 kts | 115° |
| 2026-05-05 18:17 | 47.03974 | 142.61951 | 3991 ft | 196 kts | 116° |
| 2026-05-05 18:18 | 47.03435 | 142.63792 | 3977 ft | 194 kts | 116° |
| 2026-05-05 18:18 | 47.02916 | 142.65573 | 3729 ft | 185 kts | 116° |
| 2026-05-05 18:18 | 47.02435 | 142.67230 | 3542 ft | 173 kts | 116° |
| 2026-05-05 18:18 | 47.01991 | 142.68774 | 3382 ft | 152 kts | 116° |
| 2026-05-05 18:19 | 47.01603 | 142.70138 | 3118 ft | 142 kts | 117° |
| 2026-05-05 18:19 | 47.00996 | 142.71202 | 2769 ft | 133 kts | 146° |
| 2026-05-05 18:19 | 47.00189 | 142.71820 | 2351 ft | 133 kts | 167° |
| 2026-05-05 18:19 | 46.99294 | 142.71973 | 1886 ft | 131 kts | 178° |
| 2026-05-05 18:20 | 46.98397 | 142.71976 | 1495 ft | 132 kts | 179° |
| 2026-05-05 18:20 | 46.97465 | 142.71938 | 1187 ft | 135 kts | 180° |
| 2026-05-05 18:20 | 46.96605 | 142.71904 | 1173 ft | 131 kts | 184° |
| 2026-05-05 18:20 | 46.95670 | 142.71817 | 1028 ft | 138 kts | 179° |
| 2026-05-05 18:21 | 46.94729 | 142.71815 | 1053 ft | 132 kts | 178° |
| 2026-05-05 18:21 | 46.93810 | 142.71811 | 922 ft | 132 kts | 179° |
| 2026-05-05 18:21 | 46.92889 | 142.71790 | 707 ft | 134 kts | 180° |
| 2026-05-05 18:21 | 46.91946 | 142.71786 | 512 ft | 134 kts | 180° |
| 2026-05-05 18:22 | 46.91000 | 142.71753 | 270 ft | 136 kts | 177° |
| 2026-05-05 18:22 | 46.90090 | 142.71770 | 87 ft | 129 kts | 179° |
| 2026-05-05 18:22 | 46.89286 | 142.71742 | 54 ft | 86 kts | 180° |
| 2026-05-05 18:22 | 46.88902 | 142.71741 | 55 ft | 38 kts | 182° |
| 2026-05-05 18:23 | 46.88744 | 142.71742 | 55 ft | 14 kts | 158° |
| 2026-05-05 18:23 | 46.88703 | 142.71846 | 59 ft | 10 kts | 91° |
| 2026-05-05 18:23 | 46.88700 | 142.71941 | 61 ft | 8 kts | 93° |
| 2026-05-05 18:23 | 46.88697 | 142.72044 | 63 ft | 11 kts | 98° |
| 2026-05-05 18:24 | 46.88621 | 142.72107 | 64 ft | 17 kts | 179° |
| 2026-05-05 18:24 | 46.88480 | 142.72104 | 64 ft | 22 kts | 180° |
| 2026-05-05 18:24 | 46.88306 | 142.72095 | 64 ft | 27 kts | 183° |
| 2026-05-05 18:24 | 46.88122 | 142.72093 | 64 ft | 24 kts | 181° |
| 2026-05-05 18:25 | 46.88077 | 142.72108 | 64 ft | 0 kts | 134° |
| 2026-05-05 18:25 | 46.88050 | 142.72121 | 64 ft | 13 kts | 189° |